Time;durP1;ratioP1;P1;durP2;ratioP2;P2;SDS_P1;SDS_P2;PMS_P1;PMS_P2;Temp;Humidity;BMP_temperature;BMP_pressure;BME280_temperature;BME280_humidity;BME280_pressure;Samples;Min_cycle;Max_cycle;Signal;HPM_P1;HPM_P2
2022/02/02 00:02:02;;;;;;;28.75;3.80;;;7.90;99.50;;;;;;4936679;28;20036;-80
2022/02/02 00:04:31;;;;;;;20.48;3.20;;;7.90;99.50;;;;;;4935761;28;20046;-79
2022/02/02 00:07:29;;;;;;;25.40;4.28;;;7.90;99.40;;;;;;4936447;28;20516;-80
2022/02/02 00:10:04;;;;;;;27.17;3.80;;;7.90;99.30;;;;;;4936222;28;20138;-80
2022/02/02 00:12:43;;;;;;;36.58;5.18;;;7.90;99.30;;;;;;4935199;28;20154;-80
2022/02/02 00:17:55;;;;;;;27.33;4.35;;;7.90;99.20;;;;;;4936321;28;20035;-79
2022/02/02 00:20:32;;;;;;;28.45;3.88;;;7.90;99.00;;;;;;4951237;28;20031;-78
2022/02/02 00:23:01;;;;;;;41.00;5.13;;;7.80;98.90;;;;;;4935990;28;20484;-79
2022/02/02 00:25:34;;;;;;;24.35;3.67;;;7.80;98.80;;;;;;4935967;28;20024;-79
2022/02/02 00:28:03;;;;;;;36.90;4.88;;;7.90;98.50;;;;;;4951432;28;20476;-79
2022/02/02 00:30:33;;;;;;;35.35;4.50;;;7.90;98.50;;;;;;4935866;28;20023;-78
2022/02/02 00:33:19;;;;;;;31.63;4.72;;;7.90;98.60;;;;;;4936436;29;20322;-79
2022/02/02 00:35:55;;;;;;;30.50;4.82;;;7.90;98.50;;;;;;4936062;28;20059;-79
2022/02/02 00:38:21;;;;;;;27.25;3.83;;;8.00;98.50;;;;;;4935964;28;20051;-80
2022/02/02 00:40:46;;;;;;;26.92;4.22;;;8.00;98.40;;;;;;4935863;28;20147;-78
2022/02/02 00:43:12;;;;;;;31.85;3.83;;;8.00;98.30;;;;;;4935848;28;20027;-80
2022/02/02 00:45:44;;;;;;;39.10;5.68;;;8.00;98.30;;;;;;4934554;28;20030;-80
2022/02/02 00:48:11;;;;;;;38.10;4.28;;;8.00;98.30;;;;;;4936401;29;20047;-79
2022/02/02 00:50:37;;;;;;;32.42;5.43;;;8.00;98.30;;;;;;4935739;28;20039;-81
2022/02/02 00:53:02;;;;;;;36.40;3.90;;;8.00;98.20;;;;;;4935717;28;20087;-81
2022/02/02 00:55:28;;;;;;;22.52;3.70;;;8.00;98.30;;;;;;4950693;28;20028;-81
2022/02/02 00:57:53;;;;;;;34.22;5.07;;;8.10;98.40;;;;;;4934654;29;20031;-78
2022/02/02 01:00:19;;;;;;;28.98;4.53;;;8.10;98.30;;;;;;4935952;29;20047;-79
2022/02/02 01:02:46;;;;;;;25.52;3.83;;;8.20;98.20;;;;;;4950674;28;20044;-78
2022/02/02 01:05:13;;;;;;;33.05;3.92;;;8.30;98.80;;;;;;4935385;28;20087;-79
2022/02/02 01:08:05;;;;;;;31.88;3.60;;;8.10;99.20;;;;;;4950558;28;20035;-79
2022/02/02 01:21:04;;;;;;;25.63;3.45;;;7.50;99.90;;;;;;4936079;29;20365;-79
2022/02/02 01:29:00;;;;;;;23.80;4.22;;;7.80;99.90;;;;;;4937594;28;20103;-78
2022/02/02 01:31:26;;;;;;;25.30;4.13;;;7.90;99.90;;;;;;4938578;28;20035;-79
2022/02/02 01:33:52;;;;;;;27.40;3.97;;;7.90;99.90;;;;;;4939086;29;20032;-79
2022/02/02 01:36:19;;;;;;;28.77;3.63;;;8.00;99.90;;;;;;4942284;29;20020;-81
2022/02/02 01:38:46;;;;;;;33.47;3.95;;;8.10;99.90;;;;;;4956642;28;20051;-78
2022/02/02 01:41:21;;;;;;;32.00;5.22;;;8.20;99.90;;;;;;4937182;28;20052;-79
2022/02/02 01:43:57;;;;;;;19.58;2.88;;;8.20;99.90;;;;;;4938672;28;20024;-78
2022/02/02 01:46:25;;;;;;;16.80;3.88;;;7.90;99.90;;;;;;4935387;29;20095;-78
2022/02/02 01:49:17;;;;;;;9.30;1.93;;;7.70;99.90;;;;;;4937457;28;20036;-79
2022/02/02 01:54:37;;;;;;;9.85;2.13;;;7.20;99.90;;;;;;4938052;29;20031;-77
2022/02/02 01:57:13;;;;;;;11.85;1.50;;;7.10;99.90;;;;;;4934790;29;20035;-78
2022/02/02 01:59:41;;;;;;;17.65;1.98;;;7.00;99.90;;;;;;4933390;29;20055;-77
2022/02/02 02:02:08;;;;;;;11.73;1.60;;;6.90;99.90;;;;;;4934444;28;20531;-77
2022/02/02 02:04:35;;;;;;;8.60;1.33;;;6.80;99.90;;;;;;4934721;28;20262;-78
2022/02/02 02:07:01;;;;;;;12.95;1.88;;;6.80;99.90;;;;;;4934310;28;20449;-78
2022/02/02 02:09:28;;;;;;;9.10;1.48;;;6.90;99.90;;;;;;4934630;29;20043;-78
2022/02/02 02:11:58;;;;;;;12.05;2.35;;;6.80;99.90;;;;;;4933320;29;20044;-77
2022/02/02 02:14:40;;;;;;;12.23;1.50;;;6.80;99.90;;;;;;4946644;29;20031;-78
2022/02/02 02:17:06;;;;;;;17.38;2.25;;;6.70;99.90;;;;;;4953241;28;20035;-77
2022/02/02 02:19:32;;;;;;;12.02;2.75;;;6.80;99.90;;;;;;4952204;28;20034;-77
2022/02/02 02:21:58;;;;;;;8.38;1.35;;;6.70;99.90;;;;;;4953079;28;20122;-78
2022/02/02 02:24:23;;;;;;;16.95;2.00;;;6.70;99.90;;;;;;4952617;28;20098;-77
2022/02/02 02:26:49;;;;;;;16.42;1.95;;;6.70;99.90;;;;;;4952690;28;20043;-77
2022/02/02 02:29:31;;;;;;;20.48;2.53;;;6.80;99.90;;;;;;4953043;28;20031;-78
2022/02/02 02:37:47;;;;;;;20.73;3.15;;;6.80;99.90;;;;;;4934175;28;20032;-77
2022/02/02 02:40:23;;;;;;;21.10;3.08;;;6.90;99.90;;;;;;4933895;28;20024;-78
2022/02/02 02:56:32;;;;;;;21.30;3.58;;;7.00;99.90;;;;;;4933795;28;20039;-79
2022/02/02 03:32:24;;;;;;;23.52;3.85;;;7.70;99.90;;;;;;4933546;28;20123;-79
2022/02/02 03:54:02;;;;;;;21.83;2.85;;;7.10;99.90;;;;;;4936765;28;20373;-78
2022/02/02 03:56:33;;;;;;;24.15;3.47;;;7.10;99.90;;;;;;4936466;28;20534;-77
2022/02/02 04:04:24;;;;;;;23.35;3.47;;;6.90;99.90;;;;;;4936560;28;20356;-77
2022/02/02 04:07:03;;;;;;;22.45;2.90;;;7.00;99.90;;;;;;4936295;28;20032;-78
2022/02/02 04:09:33;;;;;;;19.15;2.55;;;6.90;99.80;;;;;;4935156;28;20031;-77
2022/02/02 04:17:49;;;;;;;25.77;2.97;;;6.80;99.40;;;;;;4933933;29;20028;-77
2022/02/02 04:56:28;;;;;;;23.80;2.85;;;6.80;99.90;;;;;;4935772;29;20066;-79
2022/02/02 04:59:17;;;;;;;21.92;2.80;;;6.80;99.90;;;;;;4950287;28;20028;-79
2022/02/02 05:07:21;;;;;;;27.27;3.72;;;6.90;99.90;;;;;;4935324;28;20374;-78
2022/02/02 05:18:16;;;;;;;33.25;4.20;;;7.00;99.90;;;;;;4935366;29;20123;-78
2022/02/02 05:21:14;;;;;;;31.52;3.88;;;6.90;99.90;;;;;;4934934;28;20493;-78
2022/02/02 05:50:52;;;;;;;35.97;4.13;;;7.00;99.40;;;;;;4934535;28;19973;-78
2022/02/02 05:53:20;;;;;;;40.80;4.95;;;7.00;99.50;;;;;;4949379;28;20481;-78
2022/02/02 05:55:46;;;;;;;33.75;4.40;;;7.00;99.50;;;;;;4934449;28;20047;-78
2022/02/02 05:58:11;;;;;;;45.30;4.75;;;7.00;99.50;;;;;;4934525;28;20031;-79
2022/02/02 06:00:39;;;;;;;43.90;5.32;;;7.00;99.50;;;;;;4949206;28;20449;-79
2022/02/02 06:03:13;;;;;;;49.10;4.85;;;7.00;99.50;;;;;;4934168;29;20216;-80
2022/02/02 06:05:41;;;;;;;37.05;4.20;;;7.10;99.60;;;;;;4934356;28;20035;-78
2022/02/02 06:08:14;;;;;;;30.23;4.38;;;7.10;99.50;;;;;;4933073;29;20044;-80
2022/02/02 06:10:42;;;;;;;36.80;5.57;;;7.10;99.50;;;;;;4934237;28;20046;-77
2022/02/02 06:13:08;;;;;;;33.65;4.07;;;7.10;99.50;;;;;;4934171;28;20056;-78
2022/02/02 06:15:34;;;;;;;30.98;4.85;;;7.20;99.40;;;;;;4934313;29;20038;-78
2022/02/02 06:18:05;;;;;;;37.42;4.15;;;7.10;99.50;;;;;;4949264;29;20032;-78
2022/02/02 06:20:33;;;;;;;26.63;3.65;;;7.20;99.20;;;;;;4942571;28;20046;-78
2022/02/02 06:23:05;;;;;;;35.05;5.38;;;7.20;99.30;;;;;;4952337;28;20128;-78
2022/02/02 06:25:33;;;;;;;28.55;3.85;;;7.20;99.10;;;;;;4953423;28;20114;-78
2022/02/02 06:28:01;;;;;;;29.45;4.03;;;7.30;99.20;;;;;;4953226;28;20027;-79
2022/02/02 06:30:29;;;;;;;31.40;4.93;;;7.30;99.20;;;;;;4953667;28;20094;-78
2022/02/02 06:33:11;;;;;;;26.42;3.78;;;7.30;99.20;;;;;;4953370;28;20098;-79
2022/02/02 06:35:37;;;;;;;33.35;4.22;;;7.30;99.20;;;;;;4953122;28;20681;-78
2022/02/02 06:38:04;;;;;;;38.13;4.40;;;7.20;99.30;;;;;;4953187;28;20381;-77
2022/02/02 06:40:30;;;;;;;28.13;3.88;;;7.30;99.30;;;;;;4968232;28;20457;-78
2022/02/02 06:42:57;;;;;;;23.77;3.03;;;7.30;99.40;;;;;;4952812;28;20074;-75
2022/02/02 06:45:24;;;;;;;33.72;4.80;;;7.30;99.60;;;;;;4953323;28;20051;-80
2022/02/02 06:47:50;;;;;;;37.85;4.13;;;7.40;99.30;;;;;;4953101;28;20071;-79
2022/02/02 06:50:23;;;;;;;27.92;4.13;;;7.50;99.30;;;;;;4967932;28;20074;-79
2022/02/02 06:53:00;;;;;;;26.83;4.68;;;7.40;99.10;;;;;;4953004;28;20031;-78
2022/02/02 06:55:42;;;;;;;32.25;4.70;;;7.40;99.20;;;;;;4968050;28;20189;-81
2022/02/02 06:58:29;;;;;;;39.20;4.88;;;7.40;99.30;;;;;;4943897;28;20066;-82
2022/02/02 07:01:16;;;;;;;37.17;4.90;;;7.50;99.50;;;;;;4948624;28;20470;-82
2022/02/02 07:04:00;;;;;;;35.47;5.97;;;7.50;99.30;;;;;;4933922;28;20059;-81
2022/02/02 07:06:39;;;;;;;31.10;4.78;;;7.50;99.50;;;;;;4934646;29;20421;-82
2022/02/02 07:09:30;;;;;;;34.30;5.07;;;7.40;99.60;;;;;;4948902;28;20044;-80
2022/02/02 07:12:19;;;;;;;30.30;3.85;;;7.30;99.90;;;;;;4934003;29;20040;-80
2022/02/02 07:20:18;;;;;;;30.70;4.35;;;7.50;99.90;;;;;;4937817;28;20046;-80
2022/02/02 07:23:15;;;;;;;34.17;4.53;;;7.40;99.80;;;;;;4936647;28;20032;-76
2022/02/02 07:28:34;;;;;;;33.35;4.20;;;7.60;99.90;;;;;;4937001;28;20043;-78
2022/02/02 07:31:38;;;;;;;29.30;4.82;;;7.60;99.80;;;;;;4936935;28;20118;-79
2022/02/02 07:34:01;;;;;;;28.42;4.03;;;7.70;99.60;;;;;;4936470;28;20506;-80
2022/02/02 07:36:34;;;;;;;37.95;3.83;;;7.60;99.40;;;;;;4937859;29;20094;-77
2022/02/02 07:39:07;;;;;;;25.70;4.03;;;7.70;99.30;;;;;;4937130;29;20086;-77
2022/02/02 07:41:36;;;;;;;30.15;3.80;;;7.70;99.10;;;;;;4936653;28;20086;-76
2022/02/02 07:44:13;;;;;;;26.70;4.25;;;7.80;99.20;;;;;;4936680;28;20439;-77
2022/02/02 07:46:44;;;;;;;27.15;4.32;;;7.80;99.10;;;;;;4936594;28;20032;-78
2022/02/02 07:49:12;;;;;;;20.75;3.85;;;7.80;98.90;;;;;;4936370;28;20036;-77
2022/02/02 07:51:39;;;;;;;36.92;6.88;;;7.80;98.70;;;;;;4936756;28;20134;-77
2022/02/02 07:54:09;;;;;;;33.95;6.75;;;7.70;98.80;;;;;;4936920;29;20032;-76
2022/02/02 07:56:46;;;;;;;33.03;3.55;;;7.70;98.50;;;;;;4935494;29;20273;-77
2022/02/02 07:59:23;;;;;;;26.85;3.35;;;7.70;98.80;;;;;;4951302;28;20038;-80
2022/02/02 08:01:51;;;;;;;30.48;4.60;;;7.70;98.80;;;;;;4936557;28;20086;-81
2022/02/02 08:04:20;;;;;;;33.15;4.18;;;7.70;98.60;;;;;;4935749;29;20087;-78
2022/02/02 08:06:51;;;;;;;31.20;5.18;;;7.60;98.80;;;;;;4936785;28;20020;-77
2022/02/02 08:09:29;;;;;;;26.55;4.50;;;7.70;98.70;;;;;;4938533;29;20354;-74
2022/02/02 08:11:56;;;;;;;;;;;7.60;98.80;;;;;;4958953;28;20048;-77
2022/02/02 08:14:23;;;;;;;19.85;3.97;;;7.60;99.00;;;;;;4942812;28;19950;-79
2022/02/02 08:16:48;;;;;;;24.92;4.40;;;7.60;98.80;;;;;;4941503;28;20024;-78
2022/02/02 08:19:16;;;;;;;26.20;4.05;;;7.60;98.80;;;;;;4944616;28;20095;-79
2022/02/02 08:21:44;;;;;;;31.33;4.07;;;7.60;98.90;;;;;;4940796;28;20026;-76
2022/02/02 08:24:09;;;;;;;31.75;5.38;;;7.70;99.00;;;;;;4941186;29;20027;-77
2022/02/02 08:26:35;;;;;;;30.98;4.28;;;7.70;99.10;;;;;;4939326;29;20035;-78
2022/02/02 08:29:01;;;;;;;37.67;4.72;;;7.80;99.00;;;;;;4940359;28;20118;-79
2022/02/02 08:31:27;;;;;;;27.05;3.78;;;7.80;98.80;;;;;;4942363;28;20043;-80
2022/02/02 08:33:57;;;;;;;30.70;3.72;;;7.80;98.70;;;;;;4939164;28;20037;-79
2022/02/02 08:36:23;;;;;;;26.27;4.60;;;7.90;98.70;;;;;;4937041;29;20023;-73
2022/02/02 08:41:21;;;;;;;27.13;4.50;;;7.90;98.10;;;;;;4937535;28;20077;-79
2022/02/02 08:43:57;;;;;;;29.40;4.13;;;7.70;97.70;;;;;;4953935;28;20466;-81
2022/02/02 08:46:29;;;;;;;32.60;4.65;;;7.70;97.90;;;;;;4938791;28;20051;-80
2022/02/02 08:48:57;;;;;;;29.02;3.88;;;7.70;98.00;;;;;;4941150;28;20050;-80
2022/02/02 08:51:25;;;;;;;34.15;4.18;;;7.70;97.60;;;;;;4937777;29;20031;-81
2022/02/02 08:54:06;;;;;;;22.58;3.60;;;7.80;97.50;;;;;;4936197;28;20031;-80
2022/02/02 08:57:41;;;;;;;21.42;3.33;;;7.80;97.60;;;;;;4936223;28;20382;-80
2022/02/02 09:02:02;;;;;;;23.63;4.13;;;7.70;97.30;;;;;;4936734;28;20032;-82
2022/02/02 09:07:11;;;;;;;20.30;3.15;;;7.90;97.30;;;;;;4935087;28;20031;-81
2022/02/02 09:25:41;;;;;;;13.35;3.05;;;7.80;96.60;;;;;;4934852;28;20466;-80
2022/02/02 09:36:24;;;;;;;23.75;3.38;;;8.10;96.00;;;;;;4934908;29;20593;-82
2022/02/02 09:38:52;;;;;;;15.55;3.15;;;8.40;96.30;;;;;;4933910;28;20050;-85
2022/02/02 09:41:36;;;;;;;16.77;2.45;;;8.50;95.80;;;;;;4933942;29;20062;-81
2022/02/02 09:44:06;;;;;;;17.95;2.95;;;8.40;95.60;;;;;;4933733;29;20444;-80
2022/02/02 09:46:45;;;;;;;17.98;2.67;;;8.60;95.80;;;;;;4933573;29;20044;-82
2022/02/02 09:49:17;;;;;;;17.67;2.67;;;8.70;95.60;;;;;;4934716;28;20032;-81
2022/02/02 09:51:53;;;;;;;14.77;2.88;;;8.90;95.10;;;;;;4935189;28;20024;-79
2022/02/02 09:54:32;;;;;;;18.02;3.17;;;8.60;94.90;;;;;;4950004;28;20032;-76
2022/02/02 10:05:26;;;;;;;25.10;2.60;;;9.10;94.30;;;;;;4934960;29;20027;-83
2022/02/02 10:08:10;;;;;;;19.70;3.10;;;9.00;94.40;;;;;;4934955;28;20035;-84
2022/02/02 10:13:36;;;;;;;18.85;3.30;;;9.00;94.30;;;;;;4935079;28;20517;-78
2022/02/02 10:16:01;;;;;;;17.73;3.15;;;9.10;94.40;;;;;;4934122;28;20516;-78
2022/02/02 10:18:33;;;;;;;24.48;2.90;;;8.90;94.10;;;;;;4934566;29;20020;-83
2022/02/02 10:20:59;;;;;;;20.23;2.75;;;8.90;94.40;;;;;;4934315;29;20047;-79
2022/02/02 10:23:30;;;;;;;25.48;3.55;;;8.80;94.30;;;;;;4934399;28;20031;-80
2022/02/02 10:26:12;;;;;;;21.05;3.40;;;8.90;94.40;;;;;;4934053;28;20421;-79
2022/02/02 10:28:37;;;;;;;26.65;4.78;;;9.00;93.80;;;;;;4934578;28;20031;-85
2022/02/02 10:31:05;;;;;;;23.15;4.05;;;9.10;93.90;;;;;;4933389;28;20095;-81
2022/02/02 10:33:32;;;;;;;14.35;3.38;;;9.20;93.70;;;;;;4933964;28;20139;-81
2022/02/02 10:36:11;;;;;;;15.77;2.80;;;9.20;93.40;;;;;;4934671;29;20446;-84
2022/02/02 10:38:55;;;;;;;18.13;2.47;;;9.40;93.60;;;;;;4934195;28;20036;-81
2022/02/02 10:44:00;;;;;;;15.13;3.22;;;9.10;93.00;;;;;;4934110;28;20043;-82
2022/02/02 10:49:19;;;;;;;22.02;2.72;;;9.00;92.90;;;;;;4936892;28;20059;-83
2022/02/02 10:51:53;;;;;;;14.50;2.63;;;9.20;93.00;;;;;;4937992;28;20039;-84
2022/02/02 10:54:29;;;;;;;16.45;3.45;;;9.30;92.90;;;;;;4937086;29;20043;-82
2022/02/02 10:57:18;;;;;;;17.63;2.78;;;9.10;92.70;;;;;;4938089;29;20468;-81
2022/02/02 11:07:24;;;;;;;19.30;3.20;;;9.00;92.60;;;;;;4937526;28;20430;-81
2022/02/02 11:09:50;;;;;;;22.52;2.30;;;8.80;92.80;;;;;;4937363;28;20114;-80
2022/02/02 11:12:22;;;;;;;19.10;2.35;;;9.00;92.90;;;;;;4937302;29;20394;-82
2022/02/02 11:15:09;;;;;;;23.80;2.38;;;8.80;92.80;;;;;;4937794;28;20103;-84
2022/02/02 11:17:46;;;;;;;23.67;2.47;;;8.80;92.90;;;;;;4938371;28;20489;-83
2022/02/02 11:20:14;;;;;;;18.45;2.53;;;8.70;92.80;;;;;;4937324;28;20036;-82
2022/02/02 11:22:51;;;;;;;19.23;2.88;;;8.80;93.00;;;;;;4937417;28;20043;-81
2022/02/02 11:25:23;;;;;;;23.95;3.58;;;8.90;93.10;;;;;;4936992;28;20039;-78
2022/02/02 11:27:57;;;;;;;11.93;2.53;;;9.50;93.50;;;;;;4936771;28;20082;-78
2022/02/02 11:30:25;;;;;;;14.73;3.08;;;10.20;92.50;;;;;;4937392;29;20082;-77
2022/02/02 11:32:59;;;;;;;15.10;2.17;;;10.10;90.60;;;;;;4936997;28;20024;-77
2022/02/02 11:35:57;;;;;;;21.67;3.25;;;10.70;91.20;;;;;;4951604;28;20035;-79
2022/02/02 11:38:28;;;;;;;9.27;2.55;;;10.80;89.20;;;;;;4936195;28;20124;-79
2022/02/02 11:41:08;;;;;;;12.68;2.72;;;11.10;90.00;;;;;;4936597;28;20031;-83
2022/02/02 11:43:56;;;;;;;14.88;2.50;;;11.90;89.40;;;;;;4936796;28;20430;-79
2022/02/02 11:47:08;;;;;;;19.13;3.05;;;11.50;86.60;;;;;;4936634;28;20115;-78
2022/02/02 11:49:45;;;;;;;20.05;2.92;;;11.20;86.30;;;;;;4936078;28;20024;-76
2022/02/02 11:52:36;;;;;;;16.70;2.63;;;10.60;86.50;;;;;;4936536;28;20035;-77
2022/02/02 11:55:25;;;;;;;11.70;1.85;;;10.30;88.20;;;;;;4936240;28;20398;-76
2022/02/02 11:57:52;;;;;;;14.68;2.40;;;10.40;88.00;;;;;;4933629;28;20114;-77
2022/02/02 12:05:56;;;;;;;19.85;2.88;;;9.80;89.30;;;;;;4936266;28;20063;-74
2022/02/02 12:08:44;;;;;;;16.30;2.25;;;9.90;89.20;;;;;;4936162;28;20028;-74
2022/02/02 12:57:51;;;;;;;10.98;1.83;;;10.40;88.40;;;;;;4936030;28;20020;-78
2022/02/02 13:01:08;;;;;;;14.90;1.58;;;10.40;88.00;;;;;;4936166;29;20094;-80
2022/02/02 13:03:11;;;;;;;7.70;1.45;;;10.20;88.80;;;;;;4933709;29;20043;-79
2022/02/02 13:05:39;;;;;;;5.97;1.17;;;9.70;87.80;;;;;;4935151;28;20039;-78
2022/02/02 13:08:05;;;;;;;5.47;1.20;;;9.60;87.70;;;;;;4935135;28;20040;-78
2022/02/02 13:10:35;;;;;;;8.18;1.30;;;9.30;87.70;;;;;;4935346;28;20106;-78
2022/02/02 13:13:05;;;;;;;9.27;1.20;;;9.30;88.20;;;;;;4935708;28;20469;-78
2022/02/02 13:25:50;;;;;;;9.77;1.45;;;9.30;88.30;;;;;;4934973;28;20028;-80
2022/02/02 13:28:53;;;;;;;15.75;1.77;;;9.50;88.70;;;;;;4935159;28;20028;-78
2022/02/02 13:31:58;;;;;;;8.35;1.60;;;9.60;86.80;;;;;;4935252;28;20032;-82
2022/02/02 14:33:40;;;;;;;12.00;1.92;;;9.00;85.60;;;;;;4953749;28;20020;-82
2022/02/02 14:36:08;;;;;;;7.57;1.48;;;9.00;85.30;;;;;;4954393;28;20106;-81
2022/02/02 14:39:25;;;;;;;13.07;1.65;;;8.90;85.00;;;;;;4953441;28;20046;-77
2022/02/02 14:44:11;;;;;;;11.07;1.88;;;9.20;85.70;;;;;;4954099;28;20062;-80
2022/02/02 14:49:33;;;;;;;13.15;3.25;;;9.20;85.00;;;;;;4957922;28;20031;-88
2022/02/02 14:55:04;;;;;;;7.30;1.30;;;9.20;85.10;;;;;;4955208;28;20082;-85
2022/02/02 15:09:06;;;;;;;9.95;1.70;;;9.00;85.60;;;;;;4953181;28;20333;-79
2022/02/02 15:27:35;;;;;;;17.83;1.80;;;8.70;87.80;;;;;;4955492;28;20031;-81
2022/02/02 15:30:21;;;;;;;8.57;1.50;;;8.60;88.20;;;;;;4953606;28;20047;-82
2022/02/02 15:32:48;;;;;;;10.25;1.52;;;8.70;88.30;;;;;;4952667;28;20062;-82
2022/02/02 15:35:14;;;;;;;17.77;1.92;;;8.50;88.80;;;;;;4969941;28;20094;-81
2022/02/02 15:38:04;;;;;;;9.73;1.80;;;8.50;88.90;;;;;;4957621;28;20128;-77
2022/02/02 15:40:34;;;;;;;13.48;1.85;;;8.60;89.30;;;;;;4956936;28;20035;-77
2022/02/02 15:58:57;;;;;;;13.88;2.92;;;8.70;90.00;;;;;;4956331;28;20081;-80
2022/02/02 16:04:12;;;;;;;15.02;2.42;;;8.80;90.20;;;;;;4955453;28;20046;-80
2022/02/02 16:06:38;;;;;;;10.82;2.08;;;8.80;90.20;;;;;;4955750;28;20027;-83
2022/02/02 16:12:04;;;;;;;15.00;2.55;;;8.80;90.30;;;;;;4955534;28;20058;-80
2022/02/02 16:14:33;;;;;;;14.98;3.25;;;8.90;90.30;;;;;;4955296;28;20390;-80
2022/02/02 16:19:30;;;;;;;17.65;3.05;;;8.90;90.40;;;;;;4955776;28;20042;-86
2022/02/02 16:25:05;;;;;;;10.80;1.85;;;8.80;90.80;;;;;;4954981;28;20105;-81
2022/02/02 16:34:07;;;;;;;11.77;2.30;;;8.70;91.00;;;;;;4955121;28;20039;-75
2022/02/02 16:36:17;;;;;;;14.55;2.50;;;8.60;91.10;;;;;;4955388;28;20054;-88
2022/02/02 16:38:56;;;;;;;19.98;2.20;;;8.50;91.20;;;;;;4955128;28;20035;-81
2022/02/02 16:44:06;;;;;;;10.32;2.58;;;8.50;91.60;;;;;;4937519;28;20106;-89
2022/02/02 16:46:32;;;;;;;13.05;2.33;;;8.40;91.60;;;;;;4938276;28;20032;-85
2022/02/02 16:48:57;;;;;;;9.27;2.78;;;8.40;91.60;;;;;;4936615;28;20055;-77
2022/02/02 16:51:23;;;;;;;22.70;3.22;;;8.40;91.60;;;;;;4936851;29;20107;-75
2022/02/02 16:53:51;;;;;;;16.08;3.92;;;8.40;91.70;;;;;;4936169;28;20036;-76
2022/02/02 17:31:20;;;;;;;11.95;3.20;;;8.00;93.50;;;;;;4934764;28;20269;-80
2022/02/02 17:33:53;;;;;;;17.20;3.10;;;8.10;93.70;;;;;;4934829;28;20024;-81
2022/02/02 17:36:33;;;;;;;25.10;3.33;;;8.10;93.80;;;;;;4935224;29;20024;-81
2022/02/02 17:39:12;;;;;;;35.13;6.53;;;8.20;93.90;;;;;;4935058;29;20047;-80
2022/02/02 17:58:21;;;;;;;21.33;2.83;;;8.10;94.70;;;;;;4934262;29;20038;-78
2022/02/02 18:00:57;;;;;;;17.33;3.25;;;8.10;94.70;;;;;;4934541;28;20071;-83
2022/02/02 18:19:18;;;;;;;20.42;3.35;;;8.00;94.80;;;;;;4933973;28;20055;-79
2022/02/02 18:21:44;;;;;;;19.38;3.45;;;8.00;94.80;;;;;;4954431;28;20118;-79
2022/02/02 18:26:43;;;;;;;27.27;4.10;;;8.00;95.00;;;;;;4954316;28;20043;-85
2022/02/02 18:43:10;;;;;;;27.27;4.28;;;7.90;95.40;;;;;;4954569;28;20090;-81
2022/02/02 18:48:15;;;;;;;30.27;4.10;;;7.90;95.60;;;;;;4954158;28;20557;-81
2022/02/02 18:58:14;;;;;;;18.38;3.45;;;7.80;95.60;;;;;;4954412;28;20027;-79
2022/02/02 19:00:56;;;;;;;22.70;4.10;;;7.80;95.60;;;;;;4969366;28;20047;-79
2022/02/02 19:03:54;;;;;;;17.20;4.00;;;7.70;95.60;;;;;;4954417;28;20058;-81
2022/02/02 19:06:54;;;;;;;;;;;7.70;95.70;;;;;;4953914;28;20039;-80
2022/02/02 19:15:21;;;;;;;38.78;7.00;;;7.60;95.90;;;;;;4957832;28;20042;-80
2022/02/02 19:53:26;;;;;;;25.08;4.88;;;7.50;96.10;;;;;;4926502;29;20035;-82
2022/02/02 19:55:58;;;;;;;;;;;7.50;96.00;;;;;;4938546;28;20119;-81
2022/02/02 20:06:37;;;;;;;17.30;4.60;;;7.40;95.90;;;;;;4937147;29;20103;-80
2022/02/02 20:11:36;;;;;;;21.50;4.47;;;7.30;95.90;;;;;;4937015;28;20032;-80
2022/02/02 20:14:03;;;;;;;24.85;4.43;;;7.30;95.90;;;;;;4936575;28;20107;-81
2022/02/02 20:16:29;;;;;;;21.75;4.65;;;7.30;95.90;;;;;;4951517;28;20035;-80
2022/02/02 20:18:57;;;;;;;21.77;4.32;;;7.20;95.90;;;;;;4935348;29;20027;-76
2022/02/02 20:21:27;;;;;;;18.05;4.15;;;7.20;95.90;;;;;;4935979;29;20103;-81
2022/02/02 20:23:53;;;;;;;18.17;4.07;;;7.20;96.20;;;;;;4936359;29;20040;-81
2022/02/02 20:26:22;;;;;;;19.10;4.20;;;7.20;96.00;;;;;;4935982;28;20032;-82
2022/02/02 20:28:48;;;;;;;22.33;4.05;;;7.20;95.90;;;;;;4951495;28;20036;-81
2022/02/02 20:31:15;;;;;;;24.15;5.68;;;7.20;95.90;;;;;;4936197;29;20068;-80
2022/02/02 20:33:41;;;;;;;25.13;5.13;;;7.20;95.90;;;;;;4936119;28;20031;-80
2022/02/02 20:36:07;;;;;;;17.80;4.43;;;7.10;95.90;;;;;;4936504;29;20027;-83
2022/02/02 20:38:33;;;;;;;21.92;4.95;;;7.00;95.90;;;;;;4935983;28;20379;-83
2022/02/02 20:40:59;;;;;;;15.38;4.35;;;7.10;95.90;;;;;;4935825;28;20052;-81
2022/02/02 20:43:33;;;;;;;19.80;4.82;;;7.10;95.80;;;;;;4935177;29;20475;-80
2022/02/02 21:05:27;;;;;;;29.10;8.85;;;7.10;95.60;;;;;;4935703;28;20070;-78
2022/02/02 21:10:30;;;;;;;29.17;5.45;;;7.10;95.70;;;;;;4935571;28;20646;-79
2022/02/02 21:15:42;;;;;;;19.45;5.38;;;7.00;95.80;;;;;;4935249;28;20500;-78
2022/02/02 21:18:11;;;;;;;15.02;3.55;;;7.00;95.80;;;;;;4935475;29;20098;-78
2022/02/02 21:20:48;;;;;;;16.38;4.45;;;6.90;95.80;;;;;;4935036;28;20539;-78
2022/02/02 21:28:37;;;;;;;24.83;4.45;;;6.50;96.10;;;;;;4935231;28;20432;-77
2022/02/02 21:31:04;;;;;;;32.03;4.38;;;6.40;96.40;;;;;;4935097;28;20123;-78
2022/02/02 21:33:31;;;;;;;36.03;6.22;;;6.40;96.40;;;;;;4933997;28;20031;-77
2022/02/02 21:35:58;;;;;;;25.75;5.43;;;6.40;96.40;;;;;;4935651;29;20023;-77
2022/02/02 21:38:35;;;;;;;29.02;5.65;;;6.30;96.50;;;;;;4934036;29;20032;-77
2022/02/02 21:41:01;;;;;;;21.15;4.70;;;6.20;96.60;;;;;;4934818;28;20048;-74
2022/02/02 21:43:28;;;;;;;15.15;3.90;;;6.20;96.70;;;;;;4934940;28;20086;-77
2022/02/02 21:45:58;;;;;;;27.25;4.22;;;6.10;96.70;;;;;;4934950;28;20055;-79
2022/02/02 21:48:28;;;;;;;16.23;2.92;;;6.10;96.70;;;;;;4950272;28;20118;-78
2022/02/02 21:50:59;;;;;;;20.60;4.07;;;6.00;96.80;;;;;;4935053;29;20444;-77
2022/02/02 21:53:24;;;;;;;17.27;4.40;;;5.90;97.00;;;;;;4934636;28;20032;-76
2022/02/02 21:55:50;;;;;;;20.00;3.85;;;5.90;97.00;;;;;;4932320;28;20161;-76
2022/02/02 21:58:16;;;;;;;22.40;3.95;;;5.80;97.10;;;;;;4955023;28;20043;-79
2022/02/02 22:00:42;;;;;;;30.63;3.83;;;5.80;97.30;;;;;;4953718;28;20170;-77
2022/02/02 22:03:08;;;;;;;19.38;3.78;;;5.80;97.20;;;;;;4954758;28;20027;-77
2022/02/02 22:05:35;;;;;;;17.25;3.55;;;5.80;97.30;;;;;;4954856;28;20079;-76
2022/02/02 22:08:01;;;;;;;23.10;4.25;;;5.80;97.30;;;;;;4969546;28;20050;-77
2022/02/02 22:10:27;;;;;;;22.65;3.08;;;5.80;97.30;;;;;;4954165;28;20046;-76
2022/02/02 22:12:52;;;;;;;15.27;3.67;;;5.70;97.30;;;;;;4954485;28;20032;-77
2022/02/02 22:15:26;;;;;;;24.05;3.67;;;5.80;97.40;;;;;;4954942;28;20027;-75
2022/02/02 22:17:52;;;;;;;27.10;3.72;;;5.70;97.30;;;;;;4954551;28;20070;-76
2022/02/02 22:20:18;;;;;;;9.98;3.30;;;5.70;97.40;;;;;;4954358;28;20051;-76
2022/02/02 22:22:45;;;;;;;23.98;4.10;;;5.80;97.40;;;;;;4954427;28;20046;-77
2022/02/02 22:25:12;;;;;;;24.03;3.53;;;5.70;97.40;;;;;;4953243;28;20031;-76
2022/02/02 22:27:37;;;;;;;16.83;3.38;;;5.70;97.40;;;;;;4954180;28;20238;-76
2022/02/02 22:30:04;;;;;;;18.80;3.50;;;5.70;97.50;;;;;;4954555;28;20035;-77
2022/02/02 22:32:30;;;;;;;24.95;3.58;;;5.70;97.50;;;;;;4954208;28;20660;-77
2022/02/02 22:34:56;;;;;;;17.70;2.88;;;5.70;97.50;;;;;;4954322;28;20051;-80
2022/02/02 22:37:22;;;;;;;19.98;3.22;;;5.70;97.50;;;;;;4953354;28;20452;-78
2022/02/02 22:39:51;;;;;;;17.40;3.80;;;5.80;97.50;;;;;;4969835;28;20036;-76
2022/02/02 22:42:18;;;;;;;18.27;3.90;;;5.80;97.40;;;;;;4971829;28;20461;-77
2022/02/02 22:44:43;;;;;;;19.55;3.53;;;5.80;97.30;;;;;;4954830;28;20038;-79
2022/02/02 22:47:11;;;;;;;15.82;3.45;;;5.80;97.30;;;;;;4954938;28;20027;-80
2022/02/02 22:49:40;;;;;;;15.35;3.35;;;5.70;97.20;;;;;;4954544;28;20089;-79
2022/02/02 22:52:07;;;;;;;18.55;3.42;;;5.80;97.30;;;;;;4955151;28;20065;-82
2022/02/02 22:54:33;;;;;;;21.17;3.15;;;5.80;97.30;;;;;;4957473;28;20019;-85
2022/02/02 22:56:59;;;;;;;12.55;2.78;;;5.80;97.40;;;;;;4957140;28;20027;-81
2022/02/02 22:59:24;;;;;;;23.67;3.60;;;5.80;97.30;;;;;;4955540;28;20546;-77
2022/02/02 23:01:57;;;;;;;13.65;3.00;;;5.90;97.30;;;;;;4945592;28;20042;-76
2022/02/02 23:04:23;;;;;;;24.42;3.47;;;5.90;97.20;;;;;;4952062;28;20091;-80
2022/02/02 23:06:49;;;;;;;15.23;2.92;;;5.90;97.20;;;;;;4949701;28;20032;-75
2022/02/02 23:09:15;;;;;;;17.70;3.08;;;5.90;97.20;;;;;;4941220;29;20433;-76
2022/02/02 23:11:41;;;;;;;24.35;3.58;;;6.00;97.10;;;;;;4935017;28;20044;-75
2022/02/02 23:14:08;;;;;;;23.77;3.28;;;5.90;97.10;;;;;;4940552;28;20458;-76
2022/02/02 23:16:40;;;;;;;15.13;2.58;;;5.90;97.00;;;;;;4935112;28;20032;-76
2022/02/02 23:19:06;;;;;;;24.85;3.38;;;6.00;97.10;;;;;;4936306;28;20062;-76
2022/02/02 23:21:32;;;;;;;15.80;2.50;;;6.00;96.90;;;;;;4938928;28;20446;-76
2022/02/02 23:24:03;;;;;;;17.38;2.83;;;6.00;96.90;;;;;;4937393;29;20032;-76
2022/02/02 23:26:30;;;;;;;13.55;2.55;;;6.00;97.00;;;;;;4936567;28;20044;-76
2022/02/02 23:28:58;;;;;;;19.10;3.30;;;6.00;96.90;;;;;;4938392;28;20086;-76